createdAt,value
2023-03-22T00:00:12.468Z,99107.81
2023-03-22T00:04:14.006Z,99105.16
2023-03-22T00:08:16.794Z,99107.31
2023-03-22T00:12:18.238Z,99101.53
2023-03-22T00:16:20.707Z,99100.19
2023-03-22T00:20:22.576Z,99092.09
2023-03-22T00:24:25.394Z,99097.03
2023-03-22T00:28:27.184Z,99094.41
2023-03-22T00:32:28.715Z,99084.03
2023-03-22T00:36:30.191Z,99076.41
2023-03-22T00:40:33.254Z,99076.41
2023-03-22T00:44:34.723Z,99058.78
2023-03-22T00:48:36.194Z,99066.72
2023-03-22T00:52:37.638Z,99050.66
2023-03-22T00:56:40.404Z,99061.94
2023-03-22T01:00:42.091Z,99058.88
2023-03-22T01:04:44.240Z,99056.81
2023-03-22T01:08:45.782Z,99052.47
2023-03-22T01:12:48.541Z,99052.97
2023-03-22T01:16:50.672Z,99053.28
2023-03-22T01:20:52.166Z,99059.94
2023-03-22T01:24:53.609Z,99047.34
2023-03-22T01:28:57.286Z,99032.44
2023-03-22T01:32:59.505Z,99042.50
2023-03-22T01:37:00.964Z,99033.84
2023-03-22T01:41:02.383Z,99038.31
2023-03-22T01:45:33.592Z,99023.41
2023-03-22T01:49:35.579Z,99008.38
2023-03-22T01:53:40.896Z,99019.69
2023-03-22T01:57:43.967Z,99018.03
2023-03-22T02:01:46.783Z,99019.03
2023-03-22T02:05:48.332Z,99019.69
2023-03-22T02:09:49.766Z,99011.53
2023-03-22T02:14:15.533Z,99016.41
2023-03-22T02:18:36.429Z,99020.44
2023-03-22T02:22:57.973Z,99009.53
2023-03-22T02:27:22.733Z,99016.66
2023-03-22T02:31:58.320Z,99009.53
2023-03-22T02:36:27.596Z,99008.47
2023-03-22T02:40:34.388Z,99009.53
2023-03-22T02:44:42.517Z,99001.72
2023-03-22T02:48:53.189Z,99000.28
2023-03-22T02:53:01.669Z,98994.72
2023-03-22T02:57:09.879Z,98994.28
2023-03-22T03:01:18.033Z,98998.94
2023-03-22T03:05:21.550Z,98996.72
2023-03-22T03:09:24.805Z,98992.28
2023-03-22T03:13:27.664Z,99000.72
2023-03-22T03:17:46.013Z,98998.03
2023-03-22T03:21:58.562Z,98992.81
2023-03-22T03:26:07.676Z,98994.25
2023-03-22T03:30:14.481Z,98997.19
2023-03-22T03:34:22.128Z,98997.53
2023-03-22T03:38:27.271Z,98998.97
2023-03-22T03:42:30.333Z,99008.31
2023-03-22T03:46:33.181Z,99006.09
2023-03-22T03:50:35.366Z,99005.34
2023-03-22T03:54:36.849Z,99001.19
2023-03-22T03:58:38.320Z,98998.56
2023-03-22T04:02:41.286Z,99008.59
2023-03-22T04:06:42.982Z,99000.31
2023-03-22T04:10:49.149Z,99003.38
2023-03-22T04:14:50.592Z,99001.72
2023-03-22T04:18:53.359Z,99002.91
2023-03-22T04:22:54.803Z,99004.66
2023-03-22T04:26:56.236Z,98990.72
2023-03-22T04:30:57.812Z,98999.63
2023-03-22T04:35:00.633Z,98997.06
2023-03-22T04:39:02.336Z,98992.22
2023-03-22T04:43:04.340Z,99004.88
2023-03-22T04:47:05.827Z,98982.97
2023-03-22T04:51:10.558Z,98987.81
2023-03-22T04:55:11.988Z,98988.41
2023-03-22T04:59:14.001Z,98990.75
2023-03-22T05:03:15.473Z,98987.34
2023-03-22T05:07:18.284Z,98982.00
2023-03-22T05:11:19.733Z,98982.13
2023-03-22T05:15:21.170Z,98978.59
2023-03-22T05:19:22.596Z,98973.47
2023-03-22T05:23:25.615Z,98981.97
2023-03-22T05:27:27.058Z,98989.38
2023-03-22T05:31:28.563Z,98977.00
2023-03-22T05:35:30.236Z,98991.34
2023-03-22T05:39:33.248Z,98980.88
2023-03-22T05:43:34.728Z,98983.34
2023-03-22T05:47:36.190Z,98981.19
2023-03-22T05:51:37.617Z,98979.06
2023-03-22T05:55:40.404Z,98975.59
2023-03-22T05:59:41.853Z,98965.75
2023-03-22T06:03:43.294Z,98976.41
2023-03-22T06:07:44.868Z,98982.13
2023-03-22T06:11:47.644Z,98969.72
2023-03-22T06:15:49.107Z,98977.25
2023-03-22T06:19:52.864Z,98969.38
2023-03-22T06:23:54.533Z,98969.53
2023-03-22T06:27:57.454Z,98968.41
2023-03-22T06:31:59.007Z,98968.16
2023-03-22T06:36:00.448Z,98975.00
2023-03-22T06:40:01.935Z,98975.66
2023-03-22T06:44:05.066Z,98974.16
2023-03-22T06:48:07.067Z,98975.38
2023-03-22T06:52:08.689Z,98978.28
2023-03-22T06:56:10.138Z,98975.09
2023-03-22T07:00:14.623Z,98972.56
2023-03-22T07:04:16.096Z,98984.66
2023-03-22T07:08:17.811Z,98971.78
2023-03-22T07:12:19.254Z,98975.69
2023-03-22T07:16:22.697Z,98980.34
2023-03-22T07:20:24.200Z,98971.03
2023-03-22T07:24:25.685Z,98971.03
2023-03-22T07:28:27.228Z,98967.88
2023-03-22T07:32:30.025Z,98969.13
2023-03-22T07:36:32.010Z,98975.34
2023-03-22T07:40:33.471Z,98970.59
2023-03-22T07:44:34.925Z,98969.81
2023-03-22T07:48:37.702Z,98970.81
2023-03-22T07:52:39.828Z,98953.78
2023-03-22T07:56:41.261Z,98962.69
2023-03-22T08:00:42.810Z,98962.78
2023-03-22T08:04:45.673Z,98963.56
2023-03-22T08:08:47.484Z,98966.44
2023-03-22T08:12:48.960Z,98964.00
2023-03-22T08:16:50.397Z,98969.22
2023-03-22T08:20:58.123Z,98963.75
2023-03-22T08:24:59.610Z,98959.38
2023-03-22T08:29:01.043Z,98966.25
2023-03-22T08:33:02.540Z,98963.50
2023-03-22T08:37:06.080Z,98955.53
2023-03-22T08:41:07.646Z,98956.06
2023-03-22T08:45:09.851Z,98963.78
2023-03-22T08:49:11.331Z,98951.69
2023-03-22T08:53:14.092Z,98954.41
2023-03-22T08:57:15.540Z,98957.19
2023-03-22T09:01:17.538Z,98963.22
2023-03-22T09:05:19.148Z,98961.03
2023-03-22T09:09:22.042Z,98956.03
2023-03-22T09:13:23.479Z,98950.00
2023-03-22T09:17:25.034Z,98940.63
2023-03-22T09:21:26.453Z,98946.09
2023-03-22T09:25:29.240Z,98934.44
2023-03-22T09:29:30.733Z,98931.53
2023-03-22T09:33:32.648Z,98935.31
2023-03-22T09:37:34.113Z,98921.47
2023-03-22T09:41:41.416Z,98915.13
2023-03-22T09:45:46.551Z,98912.16
2023-03-22T09:49:53.749Z,98911.34
2023-03-22T09:53:55.511Z,98908.91
2023-03-22T09:58:06.377Z,98903.72
2023-03-22T10:02:39.039Z,98896.81
2023-03-22T10:06:45.086Z,98894.88
2023-03-22T10:10:46.627Z,98885.47
2023-03-22T10:14:55.904Z,98891.34
2023-03-22T10:19:04.615Z,98884.53
2023-03-22T10:23:12.350Z,98881.72
2023-03-22T10:27:15.735Z,98870.22
2023-03-22T10:31:20.135Z,98867.75
2023-03-22T10:35:21.685Z,98866.69
2023-03-22T10:39:31.144Z,98857.81
2023-03-22T10:43:35.182Z,98859.53
2023-03-22T10:47:41.422Z,98849.50
2023-03-22T10:51:48.610Z,98839.44
2023-03-22T10:55:50.060Z,98847.88
2023-03-22T10:59:52.673Z,98848.63
2023-03-22T11:03:58.608Z,98844.34
2023-03-22T11:08:02.991Z,98835.31
2023-03-22T11:12:04.919Z,98831.50
2023-03-22T11:16:07.342Z,98833.06
2023-03-22T11:20:16.803Z,98820.38
2023-03-22T11:24:19.177Z,98811.59
2023-03-22T11:28:22.748Z,98810.19
2023-03-22T11:32:27.497Z,98809.03
2023-03-22T11:36:30.321Z,98793.69
2023-03-22T11:40:34.382Z,98789.00
2023-03-22T11:44:36.158Z,98779.44
2023-03-22T11:48:42.098Z,98762.09
2023-03-22T11:52:48.255Z,98756.97
2023-03-22T11:56:50.047Z,98754.50
2023-03-22T12:00:53.447Z,98751.34
2023-03-22T12:05:01.133Z,98743.72
2023-03-22T12:09:10.651Z,98756.00
2023-03-22T12:13:17.502Z,98733.25
2023-03-22T12:17:28.256Z,98749.41
2023-03-22T12:21:30.209Z,98734.84
2023-03-22T12:25:36.028Z,98735.94
2023-03-22T12:29:43.717Z,98723.63
2023-03-22T12:33:48.570Z,98724.19
2023-03-22T12:37:54.063Z,98723.19
2023-03-22T12:42:02.813Z,98723.59
2023-03-22T12:46:05.527Z,98722.16
2023-03-22T12:50:13.084Z,98721.53
2023-03-22T12:54:17.885Z,98714.34
2023-03-22T12:58:23.396Z,98703.38
2023-03-22T13:02:28.303Z,98703.69
2023-03-22T13:06:54.032Z,98698.53
2023-03-22T13:11:01.520Z,98701.44
2023-03-22T13:15:41.414Z,98684.50
2023-03-22T13:19:52.292Z,98677.72
2023-03-22T13:23:56.850Z,98683.13
2023-03-22T13:28:00.204Z,98678.84
2023-03-22T13:32:05.703Z,98677.31
2023-03-22T13:36:21.975Z,98680.63
2023-03-22T13:40:31.744Z,98674.13
2023-03-22T13:44:37.848Z,98658.63
2023-03-22T13:48:59.608Z,98657.19
2023-03-22T13:53:06.325Z,98654.31
2023-03-22T13:57:16.805Z,98645.66
2023-03-22T14:01:27.614Z,98645.56
2023-03-22T14:05:35.034Z,98643.06
2023-03-22T14:09:42.783Z,98634.50
2023-03-22T14:13:48.068Z,98627.72
2023-03-22T14:17:51.294Z,98624.94
